Terminal Aerodrome Forecast
Issued by NWS

Home | Current Version | Previous Version | Graphics & Text | Print | Product List | Glossary On
Versions: 1 2 3 4 5 6 7 8 9 10 11 12 13 14
000
FTUS43 KGRB 051139
TAFATW
TAF
KATW 051139Z 0512/0612 34007KT P6SM FEW100 SCT200
     FM052100 27004KT P6SM FEW070 SCT200
     FM060000 22004KT P6SM FEW080 SCT150=

USA.gov is the U.S. government's official web portal to all federal, state and local government web resources and services.